Bloomington, IN (47403)

1:40 AM EDT on September 01, 2016 (GMT -0400)
Eagleview | | Change Station

Elev 738 ft 39.12 °N, 86.55 °W | Updated 1 minute ago

Clear
Clear
67.6 °F
Feels Like 67.6 °F
N
0.0
Wind Variable Wind from WNW
Gusts 4.0 mph

Today
High -- | Low -- °F
--% Chance of Precip.
Yesterday
High -- | Low -- °F
Precip. -- in
Pressure 30.01 in
Visibility 10.0 miles
Clouds Clear
Dew Point 63 °F
Humidity 84%
Rainfall 0.00 in
Snow Depth Not available.
7:15 AM 8:16 PM
Waning Crescent, 0% visible
METAR KBMG 010453Z AUTO 36007KT 10SM CLR 19/16 A3003 RMK AO2 SLP160 T01940161 403000194
Pressure 30.01 in
Visibility 10.0 miles
Clouds Clear
Dew Point 63 °F
Humidity 84%
Rainfall 0.00 in
Snow Depth Not available.
7:15 AM 8:16 PM
Waning Crescent, 0% visible
METAR KBMG 010453Z AUTO 36007KT 10SM CLR 19/16 A3003 RMK AO2 SLP160 T01940161 403000194

10-Day Weather Forecast

Almanac

Astronomy

Sep. 01, 2016 Rise Set
Actual Time
Civil Twilight
Nautical Twilight
Astronomical Twilight
Moon
Length of Visible Light
Length of Day
Tomorrow will be .
, % of the Moon is Illuminated

Today's Extremes

State Highs State Lows

Community

WunderPhotos

Upload Photos

1,936,313 photos uploaded!

WunderBlog® & News

Nearby

Air Quality

  Air Quality AQ Index Pollutant
Not available.

Snow Depth

Station Depth Elevation

Earthquake Activity

City Distance Mag. Time & Date
Minimum magnitude displayed is 2.5.

Coastal Water Temperatures

Place Temperature

Stations

Nearby Weather Stations

Station Location Temp. Windchill Dew Point Humidity Wind Precip. Elev Updated Type
                   

Watches & Warnings

There are currently no watches in effect.